La Palma > ESTACION METEOROLÓGICA Bellido - Tijarafe

DATOS ACTUALES Online

Ultima actulizacion 14 minutos

21.1 ºC

Temperatura

47

Humedad (%)

1014.2

Presión (mb)

0

Precipitación (mm)

1.62 NE

Viento (Km/h)

DATOS DIARIOS

Temperatura últimas 24 horas (ºC)

Humedad últimas 24 horas (%)

Presión atmosférica últimas 24 horas (mb)

Precipitaciones últimas 23 horas (mm)

Viento últimas 24 horas (Km/h)

Hora Temperatura (°C) ºC Precipitación (mm) mm Presión (mb) mb Humedad (%) % Viento (Km/h) km/h
15 - 23:00 20.9 0.8 1016 53 1.62 E
16 - 00:00 21 0 1016 52 1.62 E
16 - 01:00 20.9 0 1015 51 3.06 E
16 - 02:00 20.7 0 1015 50 3.06 E
16 - 03:00 20.7 0 1014 46 3.06 E
16 - 04:00 20.9 0 1014 45 4.68 E
16 - 05:00 21.2 0 1014 44 1.62 NE
16 - 06:00 21.8 0 1014 38 3.06 NE
16 - 07:00 21.6 0 1014 38 4.68 NE
16 - 08:00 23.2 0 1014 38 0 E
16 - 09:00 23.1 0 1014 46 0 SW
16 - 10:00 24.7 0 1015 53 1.62 SE
16 - 11:00 24.6 0 1015 50 3.06 NW
16 - 12:00 24.8 0 1015 53 6.3 NW
16 - 13:00 24.6 0 1015 56 6.3 W
16 - 14:00 24.9 0 1014 58 3.06 SW
16 - 15:00 25 0 1014 54 6.3 W
16 - 16:00 25.1 0 1013 54 7.74 SW
16 - 17:00 25.6 0 1013 57 7.74 SW
16 - 18:00 26.3 0 1012 50 9.36 W
16 - 19:00 24.4 0 1013 55 4.68 W
16 - 20:00 21.1 0 1013 15 0 NW
16 - 21:00 21.7 0 1013 49 3.06 E
16 - 22:00 21.8 0 1014 44 0 E
16 - 23:00 21.1 0 1014 47 1.62 NE
Apalmet utiliza cookies propias y de terceros para mejorar la usabilidad y la experiencia web. Política de cookies.